CYOD

CFB Cold Lake Airport

Cold Lake, Alberta, Canada
METAR CYOD 241200Z 25003KT 15SM SCT029 OVC076 M07/M09 A2946 RMK SC3AC5 SLP010
Observed Flight Rules
Feb-24 @ 12:00 UTC (20 minutes ago) Visual Flight Rules
Wind Visibility Clouds
250° at 3 knots 15 miles
  • Scattered at 2,900' AGL
  • Overcast at 7,600' AGL
Temperatures Readings
Current -7°C / 19°F
Dewpoint -9°C / 16°F
Humidity 86%
Altimeter 29.46" Hg
Pressure 1001 hPa
Elevation 544
METAR CYOD 241200Z 25003KT 15SM SCT029 OVC076 M07/M09 A2946 RMK SC3AC5 SLP010
Observed Flight Rules
Feb-24 @ 12:00 UTC
(20 minutes ago)
VFR
Wind Visibility
250° at 3 knots 15 miles
Clouds
  • Scattered at 2,900' AGL
  • Overcast at 7,600' AGL
Temperature Dewpoint
-7°C / 19°F -9°C / 16°F
Humidity Altimeter Pressure
86% 29.46" Hg 1001 hPa